Time;durP1;ratioP1;P1;durP2;ratioP2;P2;SDS_P1;SDS_P2;PMS_P1;PMS_P2;Temp;Humidity;BMP_temperature;BMP_pressure;BME280_temperature;BME280_humidity;BME280_pressure;Samples;Min_cycle;Max_cycle;Signal;HPM_P1;HPM_P2
2024/01/31 00:01:17;;;;;;;6.07;5.97;;;20.50;46.30;;;;;;5025520;28;20882;-65
2024/01/31 00:03:44;;;;;;;6.30;6.13;;;20.50;46.30;;;;;;5021643;28;20449;-64
2024/01/31 00:06:13;;;;;;;5.90;5.70;;;20.50;46.20;;;;;;5023854;28;20469;-65
2024/01/31 00:08:41;;;;;;;6.17;5.97;;;20.50;46.20;;;;;;5022166;28;20442;-66
2024/01/31 00:11:09;;;;;;;6.10;6.00;;;20.50;46.30;;;;;;5019517;28;20463;-65
2024/01/31 00:13:35;;;;;;;6.60;6.40;;;20.50;46.20;;;;;;5025347;28;20443;-65
2024/01/31 00:16:03;;;;;;;6.20;6.10;;;20.50;46.20;;;;;;5024324;28;20476;-65
2024/01/31 00:18:29;;;;;;;5.80;5.70;;;20.50;46.20;;;;;;5022005;28;20481;-65
2024/01/31 00:20:56;;;;;;;6.20;6.10;;;20.50;46.20;;;;;;5019097;28;20489;-64
2024/01/31 00:23:25;;;;;;;7.00;6.70;;;20.50;46.20;;;;;;5024648;28;20515;-65
2024/01/31 00:25:52;;;;;;;5.63;5.53;;;20.50;46.20;;;;;;5026332;28;20470;-64
2024/01/31 00:28:19;;;;;;;6.20;6.10;;;20.50;46.30;;;;;;5024407;28;20477;-64
2024/01/31 00:30:46;;;;;;;6.50;6.40;;;20.40;46.30;;;;;;5023091;28;20493;-65
2024/01/31 00:33:13;;;;;;;7.77;7.50;;;20.40;46.40;;;;;;5021555;28;20477;-64
2024/01/31 00:35:40;;;;;;;6.67;6.53;;;20.40;46.50;;;;;;5025051;28;20480;-65
2024/01/31 00:38:07;;;;;;;8.13;7.83;;;20.40;46.50;;;;;;5024263;28;20476;-65
2024/01/31 00:40:35;;;;;;;7.63;7.43;;;20.40;46.60;;;;;;5021408;28;20489;-65
2024/01/31 00:43:02;;;;;;;7.27;6.87;;;20.40;46.60;;;;;;5018656;28;20911;-65
2024/01/31 00:45:29;;;;;;;6.57;6.47;;;20.40;46.70;;;;;;5028341;28;20481;-65
2024/01/31 00:47:56;;;;;;;7.40;7.20;;;20.40;46.70;;;;;;5021472;28;20953;-64
2024/01/31 00:50:23;;;;;;;7.37;7.17;;;20.40;46.70;;;;;;5024019;28;20885;-64
2024/01/31 00:52:50;;;;;;;6.73;6.63;;;20.40;46.80;;;;;;5021172;28;20469;-65
2024/01/31 00:55:16;;;;;;;6.67;6.57;;;20.40;46.80;;;;;;5023205;28;20481;-65
2024/01/31 00:57:46;;;;;;;6.70;6.50;;;20.40;46.80;;;;;;5024673;28;20960;-64
2024/01/31 01:00:14;;;;;;;6.87;6.77;;;20.40;46.90;;;;;;5016332;28;20477;-65
2024/01/31 01:02:41;;;;;;;6.50;6.40;;;20.40;46.90;;;;;;5024980;28;20478;-64
2024/01/31 01:05:09;;;;;;;7.20;7.00;;;20.40;46.90;;;;;;5021851;28;20999;-65
2024/01/31 01:07:38;;;;;;;6.50;6.40;;;20.40;46.90;;;;;;5024631;28;20979;-64
2024/01/31 01:10:06;;;;;;;6.23;6.13;;;20.40;46.90;;;;;;5023701;28;20471;-64
2024/01/31 01:12:33;;;;;;;7.03;6.83;;;20.40;46.90;;;;;;5018691;28;20441;-65
2024/01/31 01:15:01;;;;;;;7.27;7.07;;;20.40;47.00;;;;;;5019194;28;20473;-65
2024/01/31 01:17:28;;;;;;;6.80;6.60;;;20.40;47.00;;;;;;5024397;28;20476;-65
2024/01/31 01:19:55;;;;;;;7.30;7.10;;;20.40;47.00;;;;;;5024080;28;20473;-65
2024/01/31 01:22:22;;;;;;;7.00;6.90;;;20.40;47.00;;;;;;5019347;28;20508;-65
2024/01/31 01:24:49;;;;;;;7.90;7.60;;;20.30;46.90;;;;;;5020764;28;20478;-65
2024/01/31 01:27:16;;;;;;;7.43;7.30;;;20.40;47.10;;;;;;5022523;28;20517;-64
2024/01/31 01:29:43;;;;;;;8.53;8.30;;;20.30;47.00;;;;;;5023960;28;20473;-64
2024/01/31 01:32:11;;;;;;;7.50;6.97;;;20.40;47.10;;;;;;5027513;28;20472;-64
2024/01/31 01:34:41;;;;;;;6.30;6.20;;;20.30;47.00;;;;;;5020645;28;20473;-64
2024/01/31 01:37:08;;;;;;;6.60;6.40;;;20.40;47.10;;;;;;5021172;28;21007;-64
2024/01/31 01:39:37;;;;;;;6.67;6.57;;;20.30;47.00;;;;;;5027708;28;20437;-65
2024/01/31 01:42:04;;;;;;;6.90;6.70;;;20.40;47.10;;;;;;5025318;28;20481;-65
2024/01/31 01:44:33;;;;;;;6.43;6.33;;;20.30;47.10;;;;;;5020489;28;20469;-64
2024/01/31 01:47:01;;;;;;;6.77;6.57;;;20.30;47.10;;;;;;5020063;28;20873;-65
2024/01/31 01:49:33;;;;;;;6.70;6.60;;;20.30;47.10;;;;;;5020339;28;20478;-65
2024/01/31 01:52:01;;;;;;;6.60;6.40;;;20.30;47.10;;;;;;5025359;28;20496;-64
2024/01/31 01:54:28;;;;;;;6.97;6.77;;;20.30;47.00;;;;;;5020492;28;20470;-65
2024/01/31 01:56:55;;;;;;;6.83;6.63;;;20.30;47.10;;;;;;5027155;28;20920;-64
2024/01/31 01:59:22;;;;;;;6.30;6.20;;;20.30;47.10;;;;;;5021047;28;20851;-65
2024/01/31 02:01:49;;;;;;;7.30;7.10;;;20.30;47.10;;;;;;5024003;28;20493;-64
2024/01/31 02:04:18;;;;;;;6.80;6.60;;;20.30;47.10;;;;;;5021849;28;20956;-64
2024/01/31 02:06:46;;;;;;;6.00;5.90;;;20.30;47.10;;;;;;5020164;28;20442;-65
2024/01/31 02:09:14;;;;;;;6.13;6.00;;;20.30;47.10;;;;;;5021139;28;20473;-64
2024/01/31 02:11:41;;;;;;;6.20;6.00;;;20.30;47.10;;;;;;5010444;28;20878;-65
2024/01/31 02:14:07;;;;;;;6.20;6.00;;;20.30;47.10;;;;;;5017368;28;20933;-65
2024/01/31 02:16:34;;;;;;;6.00;5.90;;;20.30;47.10;;;;;;5023473;28;20472;-65
2024/01/31 02:19:01;;;;;;;6.63;6.50;;;20.30;47.10;;;;;;5023499;28;20514;-65
2024/01/31 02:21:29;;;;;;;6.90;6.70;;;20.30;47.10;;;;;;5019316;28;20485;-65
2024/01/31 02:23:57;;;;;;;6.20;6.10;;;20.30;47.10;;;;;;5019993;28;20720;-65
2024/01/31 02:26:24;;;;;;;6.17;5.97;;;20.30;47.10;;;;;;5022421;28;20888;-64
2024/01/31 02:28:51;;;;;;;6.57;6.37;;;20.30;47.10;;;;;;5023309;28;20472;-65
2024/01/31 02:31:18;;;;;;;7.37;7.17;;;20.30;47.10;;;;;;5001896;28;20525;-65
2024/01/31 02:33:44;;;;;;;6.33;6.23;;;20.30;47.20;;;;;;5023434;28;20469;-64
2024/01/31 02:36:11;;;;;;;6.50;6.40;;;20.30;47.10;;;;;;5022398;28;20477;-65
2024/01/31 02:38:38;;;;;;;7.40;7.20;;;20.30;47.10;;;;;;5019752;28;20860;-65
2024/01/31 02:41:08;;;;;;;6.50;6.40;;;20.30;47.10;;;;;;5018483;28;20531;-65
2024/01/31 02:43:35;;;;;;;6.80;6.70;;;20.30;47.20;;;;;;5012197;28;20509;-65
2024/01/31 02:46:01;;;;;;;7.43;7.23;;;20.30;47.20;;;;;;5019835;28;20470;-64
2024/01/31 02:48:28;;;;;;;6.90;6.70;;;20.30;47.20;;;;;;5022623;28;21100;-65
2024/01/31 02:50:55;;;;;;;6.30;6.20;;;20.20;47.10;;;;;;5018423;28;20501;-65
2024/01/31 02:53:22;;;;;;;7.13;6.93;;;20.20;47.10;;;;;;5020662;28;20480;-64
2024/01/31 02:55:49;;;;;;;6.57;6.37;;;20.30;47.20;;;;;;5017716;28;20472;-65
2024/01/31 02:58:17;;;;;;;6.30;6.20;;;20.30;47.20;;;;;;5021569;28;20476;-65
2024/01/31 03:00:44;;;;;;;6.50;6.40;;;20.30;47.20;;;;;;5016367;28;20802;-64
2024/01/31 03:03:11;;;;;;;6.27;6.07;;;20.20;47.10;;;;;;5022124;28;20508;-65
2024/01/31 03:05:38;;;;;;;6.43;6.23;;;20.30;47.20;;;;;;5019504;28;20476;-65
2024/01/31 03:08:05;;;;;;;5.80;5.70;;;20.30;47.20;;;;;;5020088;28;20477;-65
2024/01/31 03:10:32;;;;;;;6.33;6.13;;;20.20;47.20;;;;;;5010580;28;20485;-65
2024/01/31 03:12:59;;;;;;;6.63;6.43;;;20.30;47.20;;;;;;5026654;28;20443;-65
2024/01/31 03:15:27;;;;;;;6.80;6.70;;;20.30;47.30;;;;;;5023910;28;20473;-65
2024/01/31 03:17:54;;;;;;;6.50;6.40;;;20.30;47.30;;;;;;5023202;28;20504;-65
2024/01/31 03:20:21;;;;;;;6.90;6.80;;;20.30;47.30;;;;;;5024160;28;20551;-65
2024/01/31 03:22:48;;;;;;;6.80;6.70;;;20.20;47.80;;;;;;5022424;28;20508;-65
2024/01/31 03:25:15;;;;;;;7.00;6.80;;;20.20;47.30;;;;;;5025295;28;20479;-65
2024/01/31 03:27:43;;;;;;;6.80;6.70;;;20.20;47.20;;;;;;5022911;28;20493;-65
2024/01/31 03:30:11;;;;;;;7.20;7.10;;;20.30;47.30;;;;;;5019508;28;20463;-65
2024/01/31 03:32:39;;;;;;;6.60;6.50;;;20.20;47.20;;;;;;5026338;28;20472;-65
2024/01/31 03:35:06;;;;;;;6.93;6.73;;;20.20;47.20;;;;;;5026120;28;20939;-65
2024/01/31 03:37:33;;;;;;;6.40;6.30;;;20.30;47.30;;;;;;5026063;28;20445;-65
2024/01/31 03:40:00;;;;;;;6.30;6.20;;;20.20;47.30;;;;;;5021505;28;20479;-65
2024/01/31 03:42:27;;;;;;;7.20;7.10;;;20.30;47.30;;;;;;5024366;28;20973;-65
2024/01/31 03:44:54;;;;;;;6.70;6.60;;;20.20;47.20;;;;;;5026007;28;20480;-65
2024/01/31 03:47:21;;;;;;;6.57;6.47;;;20.20;47.20;;;;;;5024206;28;20469;-65
2024/01/31 03:49:51;;;;;;;7.07;6.87;;;20.20;47.30;;;;;;5021979;28;20470;-65
2024/01/31 03:52:18;;;;;;;7.30;7.10;;;20.20;47.30;;;;;;5021416;28;20449;-65
2024/01/31 03:54:45;;;;;;;7.10;7.00;;;20.20;47.30;;;;;;5025899;28;20437;-65
2024/01/31 03:57:11;;;;;;;7.27;6.67;;;20.20;47.30;;;;;;5025288;28;20469;-65
2024/01/31 03:59:39;;;;;;;6.97;6.77;;;20.20;47.30;;;;;;5022513;28;20477;-65
2024/01/31 04:02:05;;;;;;;6.90;6.77;;;20.20;47.30;;;;;;5010804;28;20519;-65
2024/01/31 04:04:33;;;;;;;7.47;7.27;;;20.20;47.30;;;;;;5022234;28;20509;-65
2024/01/31 04:07:01;;;;;;;6.53;6.33;;;20.20;47.30;;;;;;5022168;28;20473;-64
2024/01/31 04:09:28;;;;;;;7.17;6.83;;;20.20;47.30;;;;;;5024716;28;20500;-65
2024/01/31 04:11:55;;;;;;;6.57;6.37;;;20.20;47.30;;;;;;5022283;28;20501;-65
2024/01/31 04:14:22;;;;;;;6.60;6.50;;;20.20;47.30;;;;;;5023615;28;20478;-65
2024/01/31 04:16:49;;;;;;;6.50;6.40;;;20.20;47.30;;;;;;5025400;28;20473;-65
2024/01/31 04:19:15;;;;;;;6.83;6.63;;;20.20;47.30;;;;;;5009492;28;20474;-65
2024/01/31 04:21:42;;;;;;;6.40;6.30;;;20.20;47.30;;;;;;5020840;28;20494;-65
2024/01/31 04:24:10;;;;;;;6.80;6.70;;;20.20;47.30;;;;;;5021786;28;20481;-65
2024/01/31 04:26:42;;;;;;;7.00;6.80;;;20.20;47.30;;;;;;5021856;28;20480;-65
2024/01/31 04:29:09;;;;;;;6.50;6.40;;;20.20;47.40;;;;;;5014368;28;20443;-65
2024/01/31 04:31:36;;;;;;;6.80;6.60;;;20.20;47.40;;;;;;5002301;28;20530;-65
2024/01/31 04:34:04;;;;;;;6.50;6.40;;;20.20;47.40;;;;;;5026095;28;20890;-64
2024/01/31 04:36:31;;;;;;;7.30;7.10;;;20.20;47.40;;;;;;5024516;28;20474;-65
2024/01/31 04:39:00;;;;;;;6.50;6.40;;;20.20;47.40;;;;;;5013337;28;20964;-65
2024/01/31 04:41:28;;;;;;;6.87;6.47;;;20.20;47.40;;;;;;5022418;28;20493;-64
2024/01/31 04:43:55;;;;;;;7.17;6.80;;;20.20;47.40;;;;;;5024721;28;20488;-65
2024/01/31 04:46:22;;;;;;;6.90;6.70;;;20.20;47.40;;;;;;5024782;28;20892;-64
2024/01/31 04:48:49;;;;;;;6.70;6.60;;;20.20;47.40;;;;;;5016246;28;20871;-65
2024/01/31 04:51:16;;;;;;;6.20;6.10;;;20.20;47.40;;;;;;5026683;28;20497;-65
2024/01/31 04:53:43;;;;;;;8.37;8.13;;;20.20;47.40;;;;;;5021175;28;20439;-65
2024/01/31 04:56:09;;;;;;;7.67;7.47;;;20.20;48.00;;;;;;5021295;28;20492;-65
2024/01/31 04:58:39;;;;;;;6.57;6.47;;;20.20;47.50;;;;;;5019040;28;20446;-65
2024/01/31 05:01:06;;;;;;;6.57;6.47;;;20.20;47.50;;;;;;5017012;28;20474;-64
2024/01/31 05:03:33;;;;;;;6.20;6.10;;;20.20;47.40;;;;;;5015733;28;20502;-65
2024/01/31 05:06:00;;;;;;;6.33;6.17;;;20.20;47.50;;;;;;5021023;28;20470;-65
2024/01/31 05:08:28;;;;;;;6.83;6.63;;;20.20;47.50;;;;;;5021694;28;20881;-65
2024/01/31 05:10:55;;;;;;;7.10;7.00;;;20.20;47.50;;;;;;5021409;28;20465;-65
2024/01/31 05:13:22;;;;;;;7.27;7.17;;;20.20;47.50;;;;;;5022684;28;20499;-65
2024/01/31 05:15:51;;;;;;;6.97;6.87;;;20.20;47.50;;;;;;5020909;28;20876;-65
2024/01/31 05:18:18;;;;;;;7.60;7.30;;;20.20;47.50;;;;;;5021543;28;20516;-64
2024/01/31 05:20:45;;;;;;;7.20;7.00;;;20.20;47.50;;;;;;5014705;28;20538;-65
2024/01/31 05:23:11;;;;;;;7.00;6.90;;;20.20;47.40;;;;;;5020646;28;20481;-65
2024/01/31 05:25:39;;;;;;;6.87;6.77;;;20.20;47.40;;;;;;5023997;28;20511;-64
2024/01/31 05:28:06;;;;;;;6.67;6.57;;;20.20;47.40;;;;;;5024191;28;20472;-65
2024/01/31 05:30:33;;;;;;;7.23;7.13;;;20.20;47.40;;;;;;5014151;28;20494;-65
2024/01/31 05:33:02;;;;;;;7.23;7.03;;;20.20;47.40;;;;;;5020428;28;20452;-65
2024/01/31 05:35:29;;;;;;;7.60;7.30;;;20.20;47.40;;;;;;5022721;28;20532;-64
2024/01/31 05:37:56;;;;;;;7.20;6.90;;;20.20;47.70;;;;;;5020419;28;20441;-64
2024/01/31 05:40:23;;;;;;;9.07;8.03;;;20.20;48.70;;;;;;5022247;28;20499;-65
2024/01/31 05:42:49;;;;;;;10.00;9.40;;;20.20;50.00;;;;;;5020353;28;20905;-65
2024/01/31 05:45:16;;;;;;;10.67;9.80;;;20.30;51.80;;;;;;5020682;28;20482;-64
2024/01/31 05:47:43;;;;;;;10.63;9.60;;;20.30;54.50;;;;;;5020775;28;20480;-65
2024/01/31 05:50:12;;;;;;;17.07;10.90;;;20.30;57.10;;;;;;5048817;22;20492;-66
2024/01/31 05:52:39;;;;;;;25.53;12.23;;;20.40;58.30;;;;;;5007525;28;20518;-67
2024/01/31 05:55:06;;;;;;;17.40;10.63;;;20.40;62.10;;;;;;5000752;28;20871;-67
2024/01/31 05:57:33;;;;;;;10.97;9.87;;;20.40;62.10;;;;;;5004278;28;20477;-66
2024/01/31 06:00:00;;;;;;;20.00;13.50;;;20.40;61.40;;;;;;4998852;28;20817;-67
2024/01/31 06:02:27;;;;;;;17.83;11.40;;;20.40;60.80;;;;;;4993851;28;20494;-67
2024/01/31 06:04:54;;;;;;;11.53;10.17;;;20.40;60.60;;;;;;4992533;28;20514;-67
2024/01/31 06:07:22;;;;;;;12.70;11.40;;;20.40;60.30;;;;;;4992016;28;20474;-67
2024/01/31 06:09:49;;;;;;;22.97;13.73;;;20.40;59.70;;;;;;4991588;28;20466;-68
2024/01/31 06:12:15;;;;;;;14.53;10.23;;;20.40;59.30;;;;;;4991880;28;20494;-67
2024/01/31 06:14:42;;;;;;;11.93;10.80;;;20.40;58.60;;;;;;4992176;28;20459;-67
2024/01/31 06:17:09;;;;;;;16.97;11.37;;;20.40;58.10;;;;;;4992123;28;20475;-67
2024/01/31 06:19:38;;;;;;;20.50;11.03;;;20.40;57.80;;;;;;4992029;28;20490;-67
2024/01/31 06:22:05;;;;;;;12.37;9.80;;;20.40;57.40;;;;;;4991901;28;20877;-67
2024/01/31 06:24:33;;;;;;;11.37;10.27;;;20.40;57.10;;;;;;4991913;28;20510;-67
2024/01/31 06:27:00;;;;;;;12.63;11.33;;;20.40;56.80;;;;;;4992074;28;20895;-67
2024/01/31 06:29:27;;;;;;;13.90;9.57;;;20.40;56.60;;;;;;4991994;28;20479;-67
2024/01/31 06:31:59;;;;;;;10.30;9.57;;;20.40;56.30;;;;;;4992110;28;20510;-67
2024/01/31 06:34:26;;;;;;;10.03;9.03;;;20.40;56.00;;;;;;4991976;28;20517;-67
2024/01/31 06:36:53;;;;;;;10.93;9.93;;;20.40;55.70;;;;;;4991948;28;20474;-67
2024/01/31 06:39:20;;;;;;;12.70;9.57;;;20.30;55.40;;;;;;4991802;28;20481;-67
2024/01/31 06:41:48;;;;;;;9.77;9.17;;;20.30;55.20;;;;;;4991814;28;20459;-67
2024/01/31 06:44:15;;;;;;;10.13;9.50;;;20.30;54.90;;;;;;4994642;28;20510;-67
2024/01/31 06:46:47;;;;;;;9.70;8.87;;;20.30;54.70;;;;;;4987985;28;20470;-67
2024/01/31 06:49:14;;;;;;;11.33;9.13;;;20.30;54.50;;;;;;4995804;28;20443;-67
2024/01/31 06:51:41;;;;;;;12.03;9.40;;;20.40;54.30;;;;;;4987391;28;20516;-67
2024/01/31 06:54:08;;;;;;;8.90;8.03;;;20.40;54.10;;;;;;4995569;28;20474;-67
2024/01/31 06:56:34;;;;;;;11.00;9.00;;;20.30;53.90;;;;;;4995592;28;20942;-67
2024/01/31 06:59:03;;;;;;;10.97;9.87;;;20.30;53.70;;;;;;4995696;28;20885;-67
2024/01/31 07:01:30;;;;;;;9.70;8.93;;;20.30;53.50;;;;;;4995364;28;20498;-67
2024/01/31 07:03:56;;;;;;;9.40;8.50;;;20.30;53.40;;;;;;4995416;28;20541;-67
2024/01/31 07:06:23;;;;;;;9.50;8.73;;;20.30;53.20;;;;;;4995309;28;20989;-67
2024/01/31 07:08:50;;;;;;;9.53;8.90;;;20.30;53.00;;;;;;4995420;28;20955;-67
2024/01/31 07:11:17;;;;;;;9.57;8.97;;;20.30;52.80;;;;;;4995138;28;20920;-67
2024/01/31 07:13:44;;;;;;;10.40;9.40;;;20.30;52.70;;;;;;4995207;28;20443;-67
2024/01/31 07:16:12;;;;;;;11.40;9.53;;;20.30;52.50;;;;;;4995319;28;20889;-67
2024/01/31 07:18:41;;;;;;;11.30;10.20;;;20.30;52.40;;;;;;4995104;28;20474;-67
2024/01/31 07:21:08;;;;;;;9.27;8.50;;;20.30;52.80;;;;;;4995030;28;20463;-67
2024/01/31 07:23:35;;;;;;;9.57;8.87;;;20.30;52.10;;;;;;4994908;28;20443;-67
2024/01/31 07:26:02;;;;;;;8.27;7.90;;;20.30;52.00;;;;;;4995177;28;20439;-67
2024/01/31 07:28:31;;;;;;;9.67;9.07;;;20.30;51.90;;;;;;4995034;28;20889;-67
2024/01/31 07:30:58;;;;;;;8.40;7.70;;;20.30;51.80;;;;;;4994953;28;20474;-66
2024/01/31 07:33:27;;;;;;;8.73;8.33;;;20.30;51.70;;;;;;4994817;28;20447;-66
2024/01/31 07:35:54;;;;;;;8.67;8.00;;;20.30;51.60;;;;;;4994928;28;20454;-66
2024/01/31 07:38:21;;;;;;;9.17;8.67;;;20.30;51.50;;;;;;4994730;28;20473;-66
2024/01/31 07:40:48;;;;;;;9.47;8.67;;;20.30;51.30;;;;;;4994707;28;20494;-66
2024/01/31 07:43:15;;;;;;;9.53;8.73;;;20.30;51.30;;;;;;4994740;28;20485;-67
2024/01/31 07:45:42;;;;;;;17.27;8.80;;;20.30;51.20;;;;;;4994735;28;20511;-67
2024/01/31 07:48:09;;;;;;;8.20;7.70;;;20.30;51.10;;;;;;4994829;28;20891;-66
2024/01/31 07:50:37;;;;;;;10.20;9.50;;;20.30;51.00;;;;;;4994404;28;20498;-66
2024/01/31 07:53:05;;;;;;;8.23;7.60;;;20.30;51.00;;;;;;4994545;28;20479;-66
2024/01/31 07:55:32;;;;;;;8.13;7.73;;;20.20;50.80;;;;;;4994102;28;20471;-67
2024/01/31 07:57:58;;;;;;;8.03;7.63;;;20.20;50.70;;;;;;4994507;28;20453;-66
2024/01/31 08:00:25;;;;;;;8.80;8.30;;;20.20;50.60;;;;;;4994259;28;20479;-66
2024/01/31 08:02:52;;;;;;;9.00;7.73;;;20.20;50.60;;;;;;4994337;28;20490;-66
2024/01/31 08:05:19;;;;;;;10.53;9.77;;;20.30;50.60;;;;;;4994345;28;20506;-67
2024/01/31 08:07:47;;;;;;;9.07;8.67;;;20.30;50.60;;;;;;4994365;28;20477;-66
2024/01/31 08:10:15;;;;;;;9.17;8.67;;;20.20;50.40;;;;;;4994179;28;20490;-67
2024/01/31 08:12:43;;;;;;;9.00;8.57;;;20.20;50.30;;;;;;4994236;28;20475;-66
2024/01/31 08:15:10;;;;;;;9.60;9.17;;;20.30;50.40;;;;;;4994192;28;20470;-67
2024/01/31 08:17:37;;;;;;;10.27;9.60;;;20.30;50.30;;;;;;4994192;28;20479;-66
2024/01/31 08:20:04;;;;;;;9.77;9.27;;;20.30;50.30;;;;;;4994217;28;20485;-66
2024/01/31 08:22:33;;;;;;;9.60;9.00;;;20.20;50.10;;;;;;4993885;28;20471;-66
2024/01/31 08:25:01;;;;;;;9.83;9.30;;;20.20;50.10;;;;;;4993965;28;20541;-66
2024/01/31 08:27:28;;;;;;;9.57;8.97;;;20.20;50.10;;;;;;4994178;28;20877;-66
2024/01/31 08:29:55;;;;;;;8.17;7.93;;;20.20;50.00;;;;;;4993946;28;20458;-66
2024/01/31 08:32:22;;;;;;;8.60;8.30;;;20.20;50.00;;;;;;4993880;28;20909;-66
2024/01/31 08:34:49;;;;;;;8.50;8.13;;;20.20;49.90;;;;;;4993998;28;20470;-66
2024/01/31 08:37:16;;;;;;;9.97;9.57;;;20.20;49.90;;;;;;4993912;28;20470;-66
2024/01/31 08:39:43;;;;;;;8.63;8.20;;;20.20;49.80;;;;;;4993684;28;20471;-67
2024/01/31 08:42:13;;;;;;;8.63;8.03;;;20.20;49.80;;;;;;4993705;28;20502;-66
2024/01/31 08:44:40;;;;;;;8.90;8.60;;;20.20;49.70;;;;;;4993629;28;21018;-67
2024/01/31 08:47:06;;;;;;;10.00;9.40;;;20.20;49.70;;;;;;4993885;28;20866;-66
2024/01/31 08:49:33;;;;;;;9.07;8.67;;;20.20;49.70;;;;;;4993482;28;20474;-67
2024/01/31 08:52:00;;;;;;;8.20;7.80;;;20.20;49.60;;;;;;4993280;28;20502;-66
2024/01/31 08:54:27;;;;;;;7.93;7.43;;;20.20;49.50;;;;;;4993330;28;20470;-67
2024/01/31 08:56:55;;;;;;;9.33;8.60;;;20.20;49.50;;;;;;4993437;28;20893;-66
2024/01/31 08:59:23;;;;;;;8.50;8.30;;;20.20;49.50;;;;;;4993231;28;20447;-66
2024/01/31 09:01:50;;;;;;;8.63;8.23;;;20.20;49.40;;;;;;4993359;28;20458;-67
2024/01/31 09:04:17;;;;;;;8.33;8.00;;;20.20;49.40;;;;;;4993343;28;20483;-66
2024/01/31 09:06:44;;;;;;;8.50;8.10;;;20.20;49.40;;;;;;4992353;28;20950;-67
2024/01/31 09:09:12;;;;;;;8.60;8.30;;;20.20;49.30;;;;;;4993246;28;20910;-67
2024/01/31 09:11:39;;;;;;;8.83;8.50;;;20.20;49.30;;;;;;4993025;28;20898;-66
2024/01/31 09:14:06;;;;;;;8.07;7.63;;;20.20;49.30;;;;;;4992853;28;20481;-67
2024/01/31 09:16:34;;;;;;;8.73;8.33;;;20.20;49.20;;;;;;4992865;28;20450;-66
2024/01/31 09:19:03;;;;;;;9.77;9.17;;;20.20;49.20;;;;;;4993139;28;20443;-66
2024/01/31 09:21:30;;;;;;;9.40;8.93;;;20.20;49.20;;;;;;4992704;28;20986;-67
2024/01/31 09:23:57;;;;;;;8.60;8.03;;;20.20;49.10;;;;;;4993024;28;20481;-66
2024/01/31 09:26:24;;;;;;;9.63;9.23;;;20.20;49.10;;;;;;4992638;28;20540;-67
2024/01/31 09:28:51;;;;;;;9.20;8.57;;;20.20;49.10;;;;;;4992843;28;20563;-66
2024/01/31 09:31:23;;;;;;;8.23;7.93;;;20.20;49.00;;;;;;4992624;28;20494;-66
2024/01/31 09:33:52;;;;;;;8.13;7.73;;;20.20;49.00;;;;;;4985023;28;20448;-67
2024/01/31 09:36:19;;;;;;;8.73;8.33;;;20.20;48.90;;;;;;4992740;28;20466;-66
2024/01/31 09:38:47;;;;;;;8.20;7.80;;;20.20;48.90;;;;;;4992579;28;20474;-67
2024/01/31 09:41:16;;;;;;;8.93;8.20;;;20.20;48.90;;;;;;4992646;28;20525;-67
2024/01/31 09:43:43;;;;;;;8.03;7.73;;;20.20;48.90;;;;;;4992380;28;20455;-66
2024/01/31 09:46:11;;;;;;;8.07;7.87;;;20.20;48.80;;;;;;4992567;28;20918;-67
2024/01/31 09:48:38;;;;;;;8.13;7.83;;;20.20;48.80;;;;;;4992527;28;20749;-66
2024/01/31 09:51:08;;;;;;;8.20;7.90;;;20.20;48.80;;;;;;4992244;28;20495;-66
2024/01/31 09:53:37;;;;;;;7.87;7.67;;;20.10;48.70;;;;;;4992318;28;20481;-67
2024/01/31 09:56:05;;;;;;;7.37;7.17;;;20.20;48.80;;;;;;4992305;28;20901;-66
2024/01/31 09:58:32;;;;;;;8.70;8.40;;;20.20;48.80;;;;;;4992247;28;20459;-67
2024/01/31 10:01:00;;;;;;;8.20;8.00;;;20.20;48.80;;;;;;4992265;28;20466;-67
2024/01/31 10:03:27;;;;;;;9.20;8.87;;;20.10;48.60;;;;;;4992116;28;20973;-67
2024/01/31 10:05:54;;;;;;;8.20;8.00;;;20.10;48.60;;;;;;4992074;28;20478;-66
2024/01/31 10:08:23;;;;;;;8.70;8.50;;;20.10;48.60;;;;;;4992341;28;20497;-67
2024/01/31 10:10:51;;;;;;;9.80;9.40;;;20.10;48.60;;;;;;4984145;28;20505;-67
2024/01/31 10:13:18;;;;;;;10.13;9.40;;;20.10;48.60;;;;;;4992115;28;20486;-67
2024/01/31 10:15:45;;;;;;;8.30;8.00;;;20.10;48.50;;;;;;4992128;28;20538;-67
2024/01/31 10:18:12;;;;;;;7.97;7.73;;;20.10;48.50;;;;;;4992085;28;20475;-67
2024/01/31 10:20:38;;;;;;;8.20;7.90;;;20.10;48.50;;;;;;4991943;28;20525;-67
2024/01/31 10:23:05;;;;;;;8.20;8.00;;;20.10;48.50;;;;;;4992093;28;20483;-67
2024/01/31 10:25:34;;;;;;;9.20;8.90;;;20.10;48.40;;;;;;4991792;28;20521;-67
2024/01/31 10:28:01;;;;;;;8.97;8.47;;;20.10;48.40;;;;;;4992125;28;20455;-67
2024/01/31 10:30:29;;;;;;;8.70;8.30;;;20.10;48.40;;;;;;4991831;28;20509;-66
2024/01/31 10:32:57;;;;;;;8.80;8.50;;;20.10;48.40;;;;;;4991880;28;20481;-66
2024/01/31 10:35:25;;;;;;;9.20;8.90;;;20.10;48.40;;;;;;4992039;28;20489;-67
2024/01/31 10:37:52;;;;;;;8.93;8.57;;;20.10;48.30;;;;;;4984168;28;20474;-66
2024/01/31 10:40:20;;;;;;;8.77;8.47;;;20.10;48.30;;;;;;4991752;28;20977;-67
2024/01/31 10:42:49;;;;;;;8.70;8.40;;;20.10;48.30;;;;;;4991690;28;20446;-66
2024/01/31 10:45:17;;;;;;;9.00;8.63;;;20.10;48.30;;;;;;4991760;28;20510;-66
2024/01/31 10:47:44;;;;;;;8.67;8.30;;;20.10;48.20;;;;;;4991729;28;20533;-67
2024/01/31 10:50:11;;;;;;;8.60;8.33;;;20.10;48.20;;;;;;4991690;28;20453;-67
2024/01/31 10:52:40;;;;;;;8.00;7.80;;;20.10;48.20;;;;;;4991554;28;20958;-67
2024/01/31 10:55:09;;;;;;;8.43;8.13;;;20.10;48.20;;;;;;4991643;28;20473;-67
2024/01/31 10:57:37;;;;;;;8.20;8.00;;;20.10;48.20;;;;;;4991647;28;20475;-65
2024/01/31 11:00:09;;;;;;;8.90;8.60;;;20.10;48.20;;;;;;4991694;28;20497;-66
2024/01/31 11:02:36;;;;;;;8.67;8.27;;;20.10;48.10;;;;;;4990546;28;20478;-66
2024/01/31 11:05:04;;;;;;;8.00;7.80;;;20.10;48.10;;;;;;4991705;28;20510;-66
2024/01/31 11:07:33;;;;;;;8.67;8.37;;;20.10;48.10;;;;;;4991588;28;20471;-66
2024/01/31 11:10:00;;;;;;;8.33;8.03;;;20.10;48.10;;;;;;4991614;28;20474;-66
2024/01/31 11:12:29;;;;;;;8.80;8.60;;;20.10;48.10;;;;;;4991332;28;20494;-66
2024/01/31 11:14:58;;;;;;;8.80;8.50;;;20.10;48.00;;;;;;4991656;28;20453;-66
2024/01/31 11:17:33;;;;;;;8.87;8.57;;;20.10;48.10;;;;;;4991629;28;20447;-67
2024/01/31 11:20:01;;;;;;;8.40;8.20;;;20.10;48.00;;;;;;4991495;28;20521;-66
2024/01/31 11:22:28;;;;;;;8.50;8.30;;;20.10;48.00;;;;;;4991281;28;20549;-66
2024/01/31 11:24:58;;;;;;;8.50;8.23;;;20.10;48.00;;;;;;4991280;28;20969;-66
2024/01/31 11:27:26;;;;;;;8.20;7.90;;;20.10;48.00;;;;;;4991558;28;20466;-66
2024/01/31 11:29:53;;;;;;;8.50;8.30;;;20.10;48.00;;;;;;4993576;28;20450;-66
2024/01/31 11:32:21;;;;;;;8.93;8.73;;;20.10;48.00;;;;;;4995123;28;20494;-66
2024/01/31 11:34:58;;;;;;;8.10;7.90;;;20.10;47.90;;;;;;4994994;28;20467;-66
2024/01/31 11:37:25;;;;;;;8.63;8.43;;;20.10;47.90;;;;;;4995067;28;20449;-66
2024/01/31 11:39:52;;;;;;;8.87;8.47;;;20.10;47.90;;;;;;4986934;28;20799;-66
2024/01/31 11:42:20;;;;;;;8.93;8.73;;;20.10;47.90;;;;;;4994805;28;20498;-66
2024/01/31 11:44:47;;;;;;;8.50;8.30;;;20.10;47.90;;;;;;4994865;28;20458;-66
2024/01/31 11:47:15;;;;;;;7.90;7.70;;;20.10;47.80;;;;;;4994699;28;20610;-66
2024/01/31 11:49:42;;;;;;;8.77;8.47;;;20.10;47.80;;;;;;4994624;28;20447;-66
2024/01/31 11:52:10;;;;;;;8.63;8.43;;;20.10;47.80;;;;;;4994697;28;20533;-65
2024/01/31 11:54:37;;;;;;;9.10;8.80;;;20.10;47.80;;;;;;4994444;28;20982;-65
2024/01/31 11:57:05;;;;;;;9.20;8.80;;;20.10;47.80;;;;;;4994767;28;20439;-65
2024/01/31 11:59:32;;;;;;;9.27;9.07;;;20.10;47.80;;;;;;4994441;28;20475;-65
2024/01/31 12:01:59;;;;;;;9.50;9.20;;;20.10;47.70;;;;;;4994457;28;20490;-65
2024/01/31 12:04:26;;;;;;;8.77;8.57;;;20.10;47.70;;;;;;4994410;28;20481;-65
2024/01/31 12:07:03;;;;;;;8.60;8.40;;;20.10;47.70;;;;;;4986463;28;20479;-65
2024/01/31 12:09:32;;;;;;;9.20;8.90;;;20.10;47.70;;;;;;4994269;28;20774;-65
2024/01/31 12:11:59;;;;;;;8.93;8.70;;;20.10;47.70;;;;;;4994254;28;20494;-65
2024/01/31 12:14:27;;;;;;;9.00;8.77;;;20.10;47.70;;;;;;4994273;28;20497;-65
2024/01/31 12:16:53;;;;;;;9.10;8.90;;;20.10;47.70;;;;;;4986241;28;20961;-65
2024/01/31 12:19:23;;;;;;;9.50;9.20;;;20.10;47.70;;;;;;4994117;28;20485;-65
2024/01/31 12:21:50;;;;;;;8.60;8.40;;;20.10;47.70;;;;;;4993931;28;20469;-65
2024/01/31 12:24:17;;;;;;;9.67;9.27;;;20.10;47.70;;;;;;4993937;28;20509;-64
2024/01/31 12:26:45;;;;;;;9.10;8.80;;;20.10;47.70;;;;;;4993902;28;20557;-66
2024/01/31 12:29:12;;;;;;;8.63;8.43;;;20.10;47.60;;;;;;4994043;28;20475;-66
2024/01/31 12:31:39;;;;;;;8.73;8.43;;;20.10;47.70;;;;;;4993771;28;20543;-66
2024/01/31 12:34:06;;;;;;;8.40;8.20;;;20.10;47.60;;;;;;4994098;28;20494;-63
2024/01/31 12:36:33;;;;;;;9.30;8.90;;;20.10;47.70;;;;;;4993763;28;20474;-66
2024/01/31 12:39:00;;;;;;;8.97;8.77;;;20.10;47.70;;;;;;4993822;28;20475;-64
2024/01/31 12:41:27;;;;;;;9.50;9.20;;;20.10;47.60;;;;;;4993829;28;20491;-66
2024/01/31 12:43:55;;;;;;;7.80;7.60;;;20.10;47.60;;;;;;4993527;28;20447;-65
2024/01/31 12:46:24;;;;;;;7.90;7.70;;;20.10;47.60;;;;;;4993554;28;20513;-65